Flight Track Log - Related Links

Times and Time Zones

All times are in EDT time to prevent confusion due to time zone crossing. See the UAL6057 flight status page for this flight to view local times or setup timezone preferences in your user account.

Time Position Orientation Groundspeed Altitude Reporting Facility
EDT Latitude Longitude Course Direction KTS MPH feet Rate Location/Type
Sat 12:36:02 PM 41.8900 -87.8903 173° South 193 222 4,400  Level Chicago Center
Sat 12:37:04 PM 41.8258 -87.8558 158° South 236 272 7,300 2,516 Climbing Chicago Center
Sat 12:38:06 PM 41.7600 -87.8175 157° South 255 293 9,600 2,341 Climbing Chicago Center
Sat 12:39:07 PM 41.6900 -87.7686 152° Southeast 279 321 12,100 2,000 Climbing Chicago Center
Sat 12:40:00 PM 41.5274 -87.4506 156° South  Level Estimated
Sat 12:40:09 PM 41.6000 -87.7022 151° Southeast 309 356 13,700  Level Chicago Center
Sat 12:41:00 PM 41.4363 -87.3601 173° South  Level Estimated
Sat 12:41:11 PM 41.5142 -87.6383 151° Southeast 345 397 15,000  Level Chicago Center
Sat 12:42:12 PM 41.4244 -87.5750 152° Southeast 358 412 16,700 1,463 Climbing Chicago Center
Sat 12:43:14 PM 41.3214 -87.5542 171° South 372 428 18,000 1,403 Climbing Chicago Center
Sat 12:44:16 PM 41.2178 -87.5369 173° South 375 432 19,600 1,561 Climbing Chicago Center
Sat 12:45:17 PM 41.1150 -87.5108 169° South 375 432 21,200 1,610 Climbing Chicago Center
Sat 12:46:19 PM 41.0111 -87.4817 168° South 379 436 22,900 1,597 Climbing Chicago Center
Sat 12:47:21 PM 40.9069 -87.4550 169° South 383 441 24,500 1,707 Climbing Chicago Center
Sat 12:48:22 PM 40.7861 -87.4225 168° South 372 428 26,400 1,707 Climbing Chicago Center
Sat 12:49:24 PM 40.6858 -87.3956 168° South 369 425 28,000 1,548 Climbing Chicago Center
Sat 12:50:26 PM 40.5878 -87.3683 168° South 364 419 29,600 1,561 Climbing Chicago Center
Sat 12:51:27 PM 40.4919 -87.3425 168° South 357 411 31,200 1,610 Climbing Chicago Center
Sat 12:52:29 PM 40.3928 -87.2778 154° Southeast 360 414 32,900 871 Climbing Chicago Center
Sat 12:53:31 PM 40.3056 -87.1967 145° Southeast 378 435 33,000 49 Climbing Chicago Center
Sat 12:54:32 PM 40.2117 -87.1106 145° Southeast 406 467 33,000  Level Chicago Center
Sat 12:55:34 PM 40.1092 -87.0181 145° Southeast 440 506 33,000  Level Chicago Center
Sat 12:56:24 PM 40.0228 -86.9369 144° Southeast 449 517 33,000 162 Level Indianapolis Center
Sat 12:57:25 PM 39.9194 -86.8475 146° Southeast 445 512 33,300 732 Climbing Indianapolis Center
Sat 12:58:27 PM 39.8372 -86.7286 132° Southeast 446 513 34,500 829 Climbing Indianapolis Center
Sat 12:59:28 PM 39.7717 -86.5908 122° Southeast 449 517 35,000 244 Climbing Indianapolis Center
Sat 01:00:30 PM 39.7039 -86.4492 122° Southeast 461 531 35,000  Level Indianapolis Center
Sat 01:01:31 PM 39.6242 -86.2822 122° Southeast 477 549 35,000  Level Indianapolis Center
Sat 01:02:33 PM 39.5547 -86.1381 122° Southeast 476 548 35,000  Level Indianapolis Center
Sat 01:03:34 PM 39.4853 -85.9936 122° Southeast 472 543 35,000  Level Indianapolis Center
Sat 01:04:36 PM 39.4147 -85.8486 122° Southeast 475 547 35,000  Level Indianapolis Center
Sat 01:05:37 PM 39.3447 -85.7036 122° Southeast 475 547 35,000  Level Indianapolis Center
Sat 01:06:39 PM 39.2728 -85.5578 122° Southeast 477 549 35,000  Level Indianapolis Center
Sat 01:07:40 PM 39.2025 -85.4128 122° Southeast 477 549 35,000  Level Indianapolis Center
Sat 01:08:42 PM 39.1183 -85.2439 123° Southeast 478 550 35,000  Level Indianapolis Center
Sat 01:09:43 PM 39.0456 -85.0986 123° Southeast 480 552 35,000  Level Indianapolis Center
Sat 01:10:45 PM 38.9728 -84.9522 123° Southeast 482 555 35,000  Level Indianapolis Center
Sat 01:11:47 PM 38.9000 -84.8056 122° Southeast 483 556 35,000  Level Indianapolis Center
Sat 01:12:48 PM 38.8264 -84.6608 123° Southeast 482 555 35,000  Level Indianapolis Center
Sat 01:13:50 PM 38.7556 -84.5214 123° Southeast 484 557 35,000  Level Indianapolis Center
Sat 01:14:51 PM 38.6811 -84.3731 123° Southeast 491 565 35,000  Level Indianapolis Center
Sat 01:15:53 PM 38.5619 -84.2508 141° Southeast 464 534 35,000  Level Indianapolis Center
Sat 01:16:54 PM 38.4531 -84.1725 151° Southeast 450 518 35,000  Level Indianapolis Center
Sat 01:17:56 PM 38.3403 -84.0967 152° Southeast 455 524 35,000  Level Indianapolis Center
Sat 01:18:57 PM 38.2278 -84.0186 151° Southeast 458 527 35,000  Level Indianapolis Center
Sat 01:19:59 PM 38.1158 -83.9411 151° Southeast 458 527 35,000  Level Indianapolis Center
Sat 01:21:00 PM 38.0011 -83.8661 153° Southeast 462 532 35,000  Level Indianapolis Center
Sat 01:22:02 PM 37.8883 -83.7872 151° Southeast 463 533 35,000  Level Indianapolis Center
Sat 01:23:03 PM 37.7758 -83.7114 152° Southeast 459 528 35,000  Level Indianapolis Center
Sat 01:24:05 PM 37.6422 -83.6208 152° Southeast 465 535 35,000  Level Indianapolis Center
Sat 01:25:06 PM 37.5267 -83.5444 152° Southeast 466 536 35,000  Level Indianapolis Center
Sat 01:26:07 PM 37.4114 -83.4656 151° Southeast 469 540 35,000  Level Indianapolis Center
Sat 01:27:09 PM 37.2961 -83.3889 152° Southeast 469 540 35,000  Level Indianapolis Center
Sat 01:28:10 PM 37.1811 -83.3119 152° Southeast 469 540 35,000  Level Indianapolis Center
Sat 01:29:12 PM 37.0656 -83.2358 152° Southeast 469 540 35,000  Level Indianapolis Center
Sat 01:30:13 PM 36.9500 -83.1608 153° Southeast 471 542 35,000  Level Indianapolis Center
Sat 01:31:14 PM 36.8158 -83.0711 152° Southeast 475 547 35,000  Level Indianapolis Center
Sat 01:31:29 PM 36.7967 -83.0639 163° South 476 548 35,000  Level Atlanta Center
Sat 01:32:29 PM 36.6794 -82.9853 152° Southeast 476 548 35,000  Level Atlanta Center
Sat 01:33:29 PM 36.5642 -82.9092 152° Southeast 471 542 35,000  Level Atlanta Center
Sat 01:34:29 PM 36.4464 -82.8308 152° Southeast 476 548 35,000  Level Atlanta Center
Sat 01:35:29 PM 36.3311 -82.7553 152° Southeast 476 548 35,000  Level Atlanta Center
Sat 01:36:29 PM 36.2156 -82.6800 152° Southeast 476 548 35,000  Level Atlanta Center
Sat 01:37:29 PM 36.1000 -82.6022 151° Southeast 476 548 35,000  Level Atlanta Center
Sat 01:38:29 PM 35.9822 -82.5300 154° Southeast 476 548 35,000  Level Atlanta Center
Sat 01:39:29 PM 35.8667 -82.4553 152° Southeast 476 548 35,000  Level Atlanta Center
Sat 01:40:29 PM 35.7508 -82.3806 152° Southeast 476 548 35,000  Level Atlanta Center
Sat 01:41:29 PM 35.6206 -82.3042 155° Southeast 470 541 35,000  Level Atlanta Center
Sat 01:42:29 PM 35.5025 -82.2300 153° Southeast 470 541 35,000  Level Atlanta Center
Sat 01:43:29 PM 35.3867 -82.1561 153° Southeast 470 541 35,000  Level Atlanta Center
Sat 01:44:29 PM 35.2686 -82.0800 152° Southeast 470 541 35,000  Level Atlanta Center
Sat 01:45:29 PM 35.1528 -82.0092 153° Southeast 470 541 35,000  Level Atlanta Center
Sat 01:46:29 PM 35.0347 -81.9333 152° Southeast 470 541 35,000 -536 Level Atlanta Center
Sat 01:48:28 PM 34.8056 -81.7675 149° Southeast 479 551 33,400 -1,006 Descending Jacksonville Center
Sat 01:49:28 PM 34.6881 -81.6908 152° Southeast 484 557 32,000 -1,350 Descending Jacksonville Center
Sat 01:50:28 PM 34.5853 -81.6139 148° Southeast 484 557 30,700 -1,500 Descending Jacksonville Center
Sat 01:51:28 PM 34.4531 -81.5428 156° South 484 557 29,000 -1,850 Descending Jacksonville Center
Sat 01:52:28 PM 34.3253 -81.5072 167° South 468 539 27,000 -2,250 Descending Jacksonville Center
Sat 01:53:28 PM 34.1978 -81.4689 166° South 474 545 24,500 -2,550 Descending Jacksonville Center
Sat 01:54:28 PM 34.0842 -81.4031 154° Southeast 462 532 21,900 -2,550 Descending Jacksonville Center
Sat 01:55:28 PM 33.9831 -81.3147 144° Southeast 456 525 19,400 -1,450 Descending Jacksonville Center
Sat 01:56:28 PM 33.8858 -81.2289 144° Southeast 450 518 19,000 -200 Descending Jacksonville Center
Sat 01:57:28 PM 33.7825 -81.1383 144° Southeast 450 518 19,000  Level Jacksonville Center
Sat 01:58:28 PM 33.6875 -81.0581 145° Southeast 456 525 19,000 -750 Level Jacksonville Center
Sat 01:59:28 PM 33.5839 -80.9703 145° Southeast 456 525 17,500 -2,000 Descending Jacksonville Center
Sat 02:00:28 PM 33.4886 -80.8903 145° Southeast 449 517 15,000 -2,500 Descending Jacksonville Center
Sat 02:01:28 PM 33.3956 -80.8128 145° Southeast 429 494 12,500 -1,800 Descending Jacksonville Center
Sat 02:02:28 PM 33.3047 -80.7378 145° Southeast 413 475 11,400 -750 Descending Jacksonville Center
Sat 02:03:28 PM 33.2258 -80.6478 136° Southeast 401 461 11,000 -350 Descending Jacksonville Center
Sat 02:04:28 PM 33.1839 -80.5272 113° Southeast 392 451 10,700 -700 Descending Jacksonville Center
Sat 02:05:28 PM 33.1342 -80.4344 123° Southeast 360 414 9,600 -1,350 Descending Jacksonville Center
Sat 02:06:28 PM 33.0661 -80.3717 142° Southeast 313 360 8,000 -1,450 Descending Jacksonville Center
Sat 02:07:28 PM 33.0006 -80.3242 149° Southeast 299 344 6,700 -1,300 Descending Jacksonville Center
Sat 02:08:28 PM 32.9272 -80.3164 175° South 272 313 5,400 -950 Descending Jacksonville Center
Sat 02:09:28 PM 32.8606 -80.3133 178° South 258 297 4,800 -600 Descending Jacksonville Center
Sat 02:10:28 PM 32.8019 -80.3075 175° South 239 275 4,200 -600 Descending Jacksonville Center
Sat 02:12:00 PM 32.8717 -80.1150 79° East  Level Estimated
Sat 02:19:00 PM 32.8833 -80.0333 79° East  Level FlightAware Approximate
Sat 02:20:00 PM 32.8986 -80.0405 79° East  Level Estimated
Sat 02:21:00 PM 32.8986 -80.0405 79° East  Level Estimated
Sat 02:22:00 PM 32.8986 -80.0405 79° East  Level Estimated
Sat 02:23:00 PM 32.8986 -80.0405 79° East  Level Estimated
Sat 02:24:00 PM 32.8986 -80.0405 79° East  Level Estimated
Sat 02:25:00 PM 32.8986 -80.0405 79° East  Level Estimated

Login

Don't have an account? Register now (free) for customized features, flight alerts, and more!